Time;durP1;ratioP1;P1;durP2;ratioP2;P2;SDS_P1;SDS_P2;PMS_P1;PMS_P2;Temp;Humidity;BMP_temperature;BMP_pressure;BME280_temperature;BME280_humidity;BME280_pressure;Samples;Min_cycle;Max_cycle;Signal;HPM_P1;HPM_P2
2023/04/18 00:00:00;;;;;;;;;;;;;;;27.01;40.09;94245.69;5004539;28;7445;-62
2023/04/18 00:02:37;;;;;;;;;;;;;;;27.00;40.14;94241.44;4963382;28;7296;-62
2023/04/18 00:05:39;;;;;;;;;;;;;;;26.99;40.39;94242.69;4975873;28;9397;-62
2023/04/18 00:08:18;;;;;;;;;;;;;;;27.01;39.98;94247.72;4916453;29;9221;-62
2023/04/18 00:11:07;;;;;;;;;;;;;;;27.00;40.19;94240.69;4918478;29;9359;-62
2023/04/18 00:13:34;;;;;;;;;;;;;;;26.98;39.92;94234.94;4916251;29;7242;-62
2023/04/18 00:16:08;;;;;;;;;;;;;;;26.98;40.39;94238.47;4915997;29;7130;-62
2023/04/18 00:18:48;;;;;;;;;;;;;;;26.98;39.97;94240.47;4924538;29;6879;-62
2023/04/18 00:21:31;;;;;;;;;;;;;;;26.97;40.19;94225.19;4921277;29;8932;-62
2023/04/18 00:23:58;;;;;;;;;;;;;;;26.95;40.27;94227.72;4917935;29;7302;-62
2023/04/18 00:26:26;;;;;;;;;;;;;;;26.94;40.27;94235.25;4905180;29;9111;-62
2023/04/18 00:29:13;;;;;;;;;;;;;;;26.95;40.17;94230.50;4918514;29;9073;-62
2023/04/18 00:31:42;;;;;;;;;;;;;;;26.96;39.99;94229.22;4902884;29;6989;-62
2023/04/18 00:34:22;;;;;;;;;;;;;;;26.95;40.07;94225.69;4915535;29;7106;-62
2023/04/18 00:37:27;;;;;;;;;;;;;;;26.96;40.40;94218.91;4914769;29;9584;-62
2023/04/18 00:40:04;;;;;;;;;;;;;;;26.95;40.42;94222.22;4908504;29;7289;-62
2023/04/18 00:42:30;;;;;;;;;;;;;;;26.92;39.74;94224.72;4958709;28;7159;-62
2023/04/18 00:44:56;;;;;;;;;;;;;;;26.90;40.39;94226.53;4968648;28;7221;-62
2023/04/18 00:47:22;;;;;;;;;;;;;;;26.87;40.19;94224.81;4972722;28;7089;-62
2023/04/18 00:49:55;;;;;;;;;;;;;;;26.85;40.00;94228.09;4953287;28;7114;-62
2023/04/18 00:52:25;;;;;;;;;;;;;;;26.84;40.71;94226.59;4969541;28;7256;-62
2023/04/18 00:54:53;;;;;;;;;;;;;;;26.85;39.88;94217.06;4969522;28;9376;-62
2023/04/18 00:57:21;;;;;;;;;;;;;;;26.81;40.59;94213.13;4954434;28;7420;-62
2023/04/18 00:59:50;;;;;;;;;;;;;;;26.81;40.11;94221.41;4951959;29;7260;-62
2023/04/18 01:02:16;;;;;;;;;;;;;;;26.81;40.46;94210.34;4985426;28;9452;-62
2023/04/18 01:04:51;;;;;;;;;;;;;;;26.80;40.50;94208.84;4955674;28;7282;-62
2023/04/18 01:07:32;;;;;;;;;;;;;;;26.78;40.34;94211.38;4928577;29;7230;-62
2023/04/18 01:09:59;;;;;;;;;;;;;;;26.78;40.47;94211.38;4954892;28;9115;-62
2023/04/18 01:12:27;;;;;;;;;;;;;;;26.78;40.83;94214.16;4955929;28;9114;-62
2023/04/18 01:15:12;;;;;;;;;;;;;;;26.79;40.72;94207.38;5017679;28;7048;-62
2023/04/18 01:17:54;;;;;;;;;;;;;;;26.77;41.09;94204.41;5042014;28;7289;-62
2023/04/18 01:20:31;;;;;;;;;;;;;;;26.77;41.29;94207.88;5028885;28;8681;-62
2023/04/18 01:23:02;;;;;;;;;;;;;;;26.78;40.79;94201.09;5037588;28;7020;-62
2023/04/18 01:25:53;;;;;;;;;;;;;;;26.77;40.85;94205.13;5033902;28;9710;-62
2023/04/18 01:28:22;;;;;;;;;;;;;;;26.78;40.97;94192.06;5048590;28;7279;-62
2023/04/18 01:31:09;;;;;;;;;;;;;;;26.79;40.58;94190.81;5029384;28;7223;-62
2023/04/18 01:33:46;;;;;;;;;;;;;;;26.79;40.85;94185.28;5028422;28;9149;-62
2023/04/18 01:36:14;;;;;;;;;;;;;;;26.78;40.77;94194.84;5033732;28;9453;-62
2023/04/18 01:38:41;;;;;;;;;;;;;;;26.78;40.67;94190.06;5061271;28;7032;-62
2023/04/18 01:41:18;;;;;;;;;;;;;;;26.77;40.70;94185.06;5048059;28;8996;-62
2023/04/18 01:43:49;;;;;;;;;;;;;;;26.75;40.20;94185.59;5026254;28;7276;-62
2023/04/18 01:46:17;;;;;;;;;;;;;;;26.77;40.13;94188.56;5029521;28;9040;-62
2023/04/18 01:48:43;;;;;;;;;;;;;;;26.76;40.31;94180.81;5063380;28;8964;-62
2023/04/18 01:51:40;;;;;;;;;;;;;;;26.78;40.57;94181.03;5062261;28;7479;-62
2023/04/18 01:54:06;;;;;;;;;;;;;;;26.76;40.46;94180.81;4968849;28;9233;-62
2023/04/18 01:56:51;;;;;;;;;;;;;;;26.76;40.47;94184.31;4957065;28;7021;-62
2023/04/18 01:59:29;;;;;;;;;;;;;;;26.75;40.61;94171.06;4966086;28;7069;-62
2023/04/18 02:02:15;;;;;;;;;;;;;;;26.77;40.82;94179.56;4959012;28;7251;-62
2023/04/18 02:04:45;;;;;;;;;;;;;;;26.74;40.66;94166.81;4972125;28;9017;-62
2023/04/18 02:07:20;;;;;;;;;;;;;;;26.74;40.99;94167.56;4970174;28;9697;-62
2023/04/18 02:09:57;;;;;;;;;;;;;;;26.74;40.31;94166.81;4975232;28;9019;-62
2023/04/18 02:12:40;;;;;;;;;;;;;;;26.73;40.41;94170.84;4958370;28;8974;-62
2023/04/18 02:15:09;;;;;;;;;;;;;;;26.74;40.33;94173.06;4957392;28;7583;-62
2023/04/18 02:17:52;;;;;;;;;;;;;;;26.74;40.92;94175.06;4956983;28;7238;-62
2023/04/18 02:24:00;;;;;;;;;;;;;;;26.75;40.79;94173.81;4974052;28;9373;-62
2023/04/18 02:26:37;;;;;;;;;;;;;;;26.74;40.98;94166.81;4901014;29;8795;-62
2023/04/18 02:29:03;;;;;;;;;;;;;;;26.71;41.05;94173.31;4894942;29;7487;-62
2023/04/18 02:31:30;;;;;;;;;;;;;;;26.76;40.96;94175.31;4952361;28;8907;-62
2023/04/18 02:34:22;;;;;;;;;;;;;;;26.75;40.46;94169.03;4974163;28;7029;-62
2023/04/18 02:37:15;;;;;;;;;;;;;;;26.75;40.52;94169.03;4990205;28;7300;-62
2023/04/18 02:39:50;;;;;;;;;;;;;;;26.73;40.53;94166.06;4980442;28;7054;-62
2023/04/18 02:42:25;;;;;;;;;;;;;;;26.75;40.79;94165.53;4965792;28;7051;-62
2023/04/18 02:45:00;;;;;;;;;;;;;;;26.73;40.71;94166.06;4979548;28;7442;-62
2023/04/18 02:47:57;;;;;;;;;;;;;;;26.73;40.70;94168.09;4967685;28;9592;-62
2023/04/18 02:50:35;;;;;;;;;;;;;;;26.74;40.79;94166.81;4938359;28;7118;-62
2023/04/18 02:53:18;;;;;;;;;;;;;;;26.74;41.06;94167.56;4954969;28;8849;-62
2023/04/18 02:55:55;;;;;;;;;;;;;;;26.74;40.78;94172.31;4937595;28;7082;-62
2023/04/18 02:59:05;;;;;;;;;;;;;;;26.76;40.48;94172.53;4943687;28;8637;-62
2023/04/18 03:01:41;;;;;;;;;;;;;;;26.75;40.63;94165.53;4954228;28;8824;-62
2023/04/18 03:04:06;;;;;;;;;;;;;;;26.74;40.51;94167.56;4962086;28;9458;-62
2023/04/18 03:07:26;;;;;;;;;;;;;;;26.72;40.58;94167.31;4992072;28;8905;-62
2023/04/18 03:10:07;;;;;;;;;;;;;;;26.71;40.64;94165.81;4937212;28;9365;-61
2023/04/18 03:12:42;;;;;;;;;;;;;;;26.71;40.61;94162.28;4945775;28;9233;-62
2023/04/18 03:15:47;;;;;;;;;;;;;;;26.73;40.32;94159.81;4953897;28;7856;-62
2023/04/18 03:18:26;;;;;;;;;;;;;;;26.72;40.48;94166.56;4899501;29;7078;-62
2023/04/18 03:21:02;;;;;;;;;;;;;;;26.71;41.23;94165.06;4892233;29;7472;-62
2023/04/18 03:23:28;;;;;;;;;;;;;;;26.72;40.99;94158.28;4914343;29;9085;-62
2023/04/18 03:25:56;;;;;;;;;;;;;;;26.74;40.79;94164.03;4895220;29;8998;-62
2023/04/18 03:28:38;;;;;;;;;;;;;;;26.72;40.17;94152.75;4897078;29;7030;-62
2023/04/18 03:31:36;;;;;;;;;;;;;;;26.73;40.25;94157.03;4897025;29;9455;-62
2023/04/18 03:34:04;;;;;;;;;;;;;;;26.72;40.40;94158.28;4899385;29;8637;-62
2023/04/18 03:36:33;;;;;;;;;;;;;;;26.69;40.25;94154.53;4878486;29;7107;-62
2023/04/18 03:39:29;;;;;;;;;;;;;;;26.73;40.75;94159.81;4878091;29;9851;-62
2023/04/18 03:42:13;;;;;;;;;;;;;;;26.71;40.31;94159.53;4862416;29;7367;-62
2023/04/18 03:45:10;;;;;;;;;;;;;;;26.72;40.88;94158.28;4875817;29;7195;-62
2023/04/18 03:47:50;;;;;;;;;;;;;;;26.69;40.43;94156.56;4893582;29;7003;-62
2023/04/18 03:50:16;;;;;;;;;;;;;;;26.71;40.77;94154.00;4878374;29;7275;-62
2023/04/18 03:52:42;;;;;;;;;;;;;;;26.70;40.40;94158.06;4911406;29;8706;-62
2023/04/18 03:55:10;;;;;;;;;;;;;;;26.67;40.89;94151.56;4930849;29;8762;-62
2023/04/18 03:57:47;;;;;;;;;;;;;;;26.68;40.73;94152.31;4925556;29;7272;-62
2023/04/18 04:00:45;;;;;;;;;;;;;;;26.69;40.95;94154.53;4931073;29;8715;-62
2023/04/18 04:03:13;;;;;;;;;;;;;;;26.67;40.44;94153.56;4896272;29;7046;-62
2023/04/18 04:05:41;;;;;;;;;;;;;;;26.69;40.89;94162.06;4892963;29;9414;-62
2023/04/18 04:08:22;;;;;;;;;;;;;;;26.67;41.03;94157.09;4895055;29;7277;-62
2023/04/18 04:10:48;;;;;;;;;;;;;;;26.68;40.36;94158.59;4881766;29;9586;-62
2023/04/18 04:13:23;;;;;;;;;;;;;;;26.69;40.48;94164.81;4893231;29;7123;-62
2023/04/18 04:16:15;;;;;;;;;;;;;;;26.67;40.79;94161.84;4884490;29;7339;-62
2023/04/18 04:18:50;;;;;;;;;;;;;;;26.66;40.42;94158.38;4920584;29;7348;-62
2023/04/18 04:21:25;;;;;;;;;;;;;;;26.66;40.57;94160.38;4918430;29;8977;-62
2023/04/18 04:24:03;;;;;;;;;;;;;;;26.66;40.85;94161.13;4927888;28;7887;-62
2023/04/18 04:26:30;;;;;;;;;;;;;;;26.68;40.50;94163.34;4972820;28;7432;-62
2023/04/18 04:28:58;;;;;;;;;;;;;;;26.66;40.88;94165.91;4970271;28;7217;-62
2023/04/18 04:31:27;;;;;;;;;;;;;;;26.66;40.66;94171.41;4966491;28;9004;-62
2023/04/18 04:33:55;;;;;;;;;;;;;;;26.67;40.96;94167.38;4969271;28;9356;-62
2023/04/18 04:36:32;;;;;;;;;;;;;;;26.66;40.73;94163.13;4968521;28;7733;-62
2023/04/18 04:39:08;;;;;;;;;;;;;;;26.65;40.81;94175.44;5005264;28;8040;-61
2023/04/18 04:41:43;;;;;;;;;;;;;;;26.62;41.29;94165.44;5031695;28;9005;-61
2023/04/18 04:44:09;;;;;;;;;;;;;;;26.63;41.06;94167.69;5036621;28;7061;-63
2023/04/18 04:46:48;;;;;;;;;;;;;;;26.65;40.23;94176.19;5043529;28;7263;-63
2023/04/18 04:49:15;;;;;;;;;;;;;;;26.63;40.53;94169.69;5064123;28;7137;-62
2023/04/18 04:51:51;;;;;;;;;;;;;;;26.63;40.81;94184.22;5031433;28;8734;-62
2023/04/18 04:54:20;;;;;;;;;;;;;;;26.66;40.99;94182.44;5027393;28;8763;-62
2023/04/18 04:56:46;;;;;;;;;;;;;;;26.61;40.37;94172.97;5028802;28;9521;-62
2023/04/18 04:59:17;;;;;;;;;;;;;;;26.66;40.76;94180.44;5046104;28;7536;-62
2023/04/18 05:01:56;;;;;;;;;;;;;;;26.66;40.56;94182.44;5034006;28;9026;-62
2023/04/18 05:04:23;;;;;;;;;;;;;;;26.63;40.65;94181.47;5033018;28;7183;-62
2023/04/18 05:07:16;;;;;;;;;;;;;;;26.65;40.69;94180.94;5028498;28;7149;-62
2023/04/18 05:09:42;;;;;;;;;;;;;;;26.66;41.04;94182.44;5051736;28;8694;-62
2023/04/18 05:12:10;;;;;;;;;;;;;;;26.68;41.25;94185.44;5032765;28;9439;-62
2023/04/18 05:14:55;;;;;;;;;;;;;;;26.64;41.37;94190.50;5047934;28;7253;-62
2023/04/18 05:17:28;;;;;;;;;;;;;;;26.65;41.32;94187.22;5036082;28;9174;-63
2023/04/18 05:20:06;;;;;;;;;;;;;;;26.66;40.53;94185.19;5033551;28;7277;-62
2023/04/18 05:22:39;;;;;;;;;;;;;;;26.62;41.56;94176.50;5029946;28;7041;-62
2023/04/18 05:25:08;;;;;;;;;;;;;;;26.66;40.97;94183.19;5031304;28;9109;-62
2023/04/18 05:27:35;;;;;;;;;;;;;;;26.63;41.56;94180.72;5043186;28;7192;-62
2023/04/18 05:30:17;;;;;;;;;;;;;;;26.63;41.05;94192.50;5064968;28;9099;-62
2023/04/18 05:32:52;;;;;;;;;;;;;;;26.64;40.97;94193.25;5032708;28;7211;-62
2023/04/18 05:35:37;;;;;;;;;;;;;;;26.60;41.36;94184.53;5068096;28;7268;-62
2023/04/18 05:38:20;;;;;;;;;;;;;;;26.64;41.46;94196.03;5034579;28;7704;-63
2023/04/18 05:40:59;;;;;;;;;;;;;;;26.65;40.41;94189.97;5029637;28;7367;-62
2023/04/18 05:43:25;;;;;;;;;;;;;;;26.64;40.23;94187.75;5039198;28;9252;-62
2023/04/18 05:45:58;;;;;;;;;;;;;;;26.62;40.55;94182.00;5031942;28;7583;-62
2023/04/18 05:48:32;;;;;;;;;;;;;;;26.62;40.84;94193.75;5049061;28;9226;-62
2023/04/18 05:50:59;;;;;;;;;;;;;;;26.64;40.14;94190.50;5029323;28;7079;-62
2023/04/18 05:53:26;;;;;;;;;;;;;;;26.63;40.90;94194.50;5051776;28;9229;-62
2023/04/18 05:55:56;;;;;;;;;;;;;;;26.65;40.19;94189.97;5040571;28;7338;-62
2023/04/18 05:58:29;;;;;;;;;;;;;;;26.64;40.19;94193.25;5021600;28;7050;-62
2023/04/18 06:00:55;;;;;;;;;;;;;;;26.62;40.59;94199.28;5027831;28;9114;-62
2023/04/18 06:03:26;;;;;;;;;;;;;;;26.65;40.85;94197.50;5027286;28;7291;-62
2023/04/18 06:05:55;;;;;;;;;;;;;;;26.64;40.73;94196.75;5022458;28;7286;-62
2023/04/18 06:08:47;;;;;;;;;;;;;;;26.69;40.61;94208.97;5062704;28;9343;-62
2023/04/18 06:11:23;;;;;;;;;;;;;;;26.68;40.57;94205.50;5061920;28;9035;-62
2023/04/18 06:13:50;;;;;;;;;;;;;;;26.67;41.23;94200.47;5028900;28;9309;-63
2023/04/18 06:16:24;;;;;;;;;;;;;;;26.68;40.55;94202.72;5023423;28;8971;-63
2023/04/18 06:18:50;;;;;;;;;;;;;;;26.64;40.74;94204.28;5024080;28;7211;-63
2023/04/18 06:21:30;;;;;;;;;;;;;;;26.63;41.05;94202.78;5039776;28;9400;-63
2023/04/18 06:24:15;;;;;;;;;;;;;;;26.62;40.65;94196.53;5027476;28;7264;-63
2023/04/18 06:27:33;;;;;;;;;;;;;;;26.65;40.61;94208.53;5023238;28;8983;-63
2023/04/18 06:30:01;;;;;;;;;;;;;;;26.64;40.73;94209.81;5031449;28;7097;-63
2023/04/18 06:32:43;;;;;;;;;;;;;;;26.63;41.12;94206.31;5034080;28;7039;-62
2023/04/18 06:35:16;;;;;;;;;;;;;;;26.62;41.13;94204.78;5066179;28;7276;-62
2023/04/18 06:37:56;;;;;;;;;;;;;;;26.63;41.30;94202.78;5033270;28;9515;-63
2023/04/18 06:40:28;;;;;;;;;;;;;;;26.63;41.42;94205.56;5050330;28;9887;-63
2023/04/18 06:43:08;;;;;;;;;;;;;;;26.65;41.16;94217.56;5030902;28;7098;-63
2023/04/18 06:45:35;;;;;;;;;;;;;;;26.67;41.22;94211.50;4993120;28;7253;-63
2023/04/18 06:48:03;;;;;;;;;;;;;;;26.65;41.67;94214.03;5011653;28;9301;-62
2023/04/18 06:50:29;;;;;;;;;;;;;;;26.66;41.58;94205.25;5015550;28;6998;-62
2023/04/18 06:52:56;;;;;;;;;;;;;;;26.65;41.75;94214.03;4997192;28;8894;-62
2023/04/18 06:55:25;;;;;;;;;;;;;;;26.64;42.11;94215.34;4993478;28;7279;-63
2023/04/18 06:57:59;;;;;;;;;;;;;;;26.67;41.11;94217.03;5026518;28;7151;-63
2023/04/18 07:00:26;;;;;;;;;;;;;;;26.68;41.76;94213.00;5011334;28;7032;-63
2023/04/18 07:02:54;;;;;;;;;;;;;;;26.69;41.20;94215.25;4991336;28;7239;-63
2023/04/18 07:05:27;;;;;;;;;;;;;;;26.68;41.70;94216.53;5010501;28;7135;-62
2023/04/18 07:07:57;;;;;;;;;;;;;;;26.67;41.82;94214.28;5011877;28;9060;-62
2023/04/18 07:10:38;;;;;;;;;;;;;;;26.68;41.55;94213.00;4996919;28;9343;-62
2023/04/18 07:13:15;;;;;;;;;;;;;;;26.67;41.04;94217.03;4996955;28;9073;-62
2023/04/18 07:15:43;;;;;;;;;;;;;;;26.65;41.71;94212.03;5022269;28;9367;-63
2023/04/18 07:18:28;;;;;;;;;;;;;;;26.70;41.32;94216.00;5006734;28;9044;-63
2023/04/18 07:21:10;;;;;;;;;;;;;;;26.66;41.27;94210.03;5014339;28;8969;-63
2023/04/18 07:23:37;;;;;;;;;;;;;;;26.67;41.22;94211.50;5011934;28;9039;-63
2023/04/18 07:26:30;;;;;;;;;;;;;;;26.68;41.54;94215.78;4991616;28;9342;-63
2023/04/18 07:29:18;;;;;;;;;;;;;;;26.68;41.67;94210.25;4965965;28;7206;-62
2023/04/18 07:31:53;;;;;;;;;;;;;;;26.69;41.61;94211.72;4953250;28;9254;-64
2023/04/18 07:34:22;;;;;;;;;;;;;;;26.68;41.45;94216.53;4973154;28;7044;-64
2023/04/18 07:37:07;;;;;;;;;;;;;;;26.66;41.12;94215.56;4972518;28;7048;-63
2023/04/18 07:39:43;;;;;;;;;;;;;;;26.67;41.10;94223.28;4970524;28;6998;-63
2023/04/18 07:42:22;;;;;;;;;;;;;;;26.70;41.29;94219.50;4957008;28;7485;-63
2023/04/18 07:44:48;;;;;;;;;;;;;;;26.70;41.26;94221.50;4991572;28;9852;-63
2023/04/18 07:47:27;;;;;;;;;;;;;;;26.68;41.33;94224.06;5024516;28;7130;-63
2023/04/18 07:50:18;;;;;;;;;;;;;;;26.69;41.41;94220.00;5004839;28;7027;-63
2023/04/18 07:53:00;;;;;;;;;;;;;;;26.69;41.34;94225.53;5002859;28;7375;-63
2023/04/18 07:55:32;;;;;;;;;;;;;;;26.66;41.44;94226.59;5008841;28;9096;-63
2023/04/18 07:58:10;;;;;;;;;;;;;;;26.69;41.67;94231.78;4993632;28;7392;-63
2023/04/18 08:00:50;;;;;;;;;;;;;;;26.72;41.63;94232.78;4998157;28;7057;-63
2023/04/18 08:03:35;;;;;;;;;;;;;;;26.69;41.52;94233.81;5027659;28;7317;-63
2023/04/18 08:06:15;;;;;;;;;;;;;;;26.70;41.92;94225.03;5033061;28;7028;-63
2023/04/18 08:08:43;;;;;;;;;;;;;;;26.72;41.36;94230.00;5030821;28;7076;-63
2023/04/18 08:11:21;;;;;;;;;;;;;;;26.73;41.01;94232.25;5030511;28;8694;-63
2023/04/18 08:13:48;;;;;;;;;;;;;;;26.71;40.87;94226.50;5044133;28;7005;-63
2023/04/18 08:16:25;;;;;;;;;;;;;;;26.71;41.48;94231.25;5027101;28;8430;-63
2023/04/18 08:19:04;;;;;;;;;;;;;;;26.73;40.96;94240.53;5029664;28;7525;-63
2023/04/18 08:21:38;;;;;;;;;;;;;;;26.72;41.10;94241.03;5027739;28;7070;-63
2023/04/18 08:24:05;;;;;;;;;;;;;;;26.72;41.33;94246.56;5027766;28;7143;-63
2023/04/18 08:26:31;;;;;;;;;;;;;;;26.68;41.53;94235.09;5024815;28;9061;-63
2023/04/18 08:28:59;;;;;;;;;;;;;;;26.70;41.61;94243.59;5038662;28;7024;-63
2023/04/18 08:31:27;;;;;;;;;;;;;;;26.71;41.57;94237.53;5030670;28;6960;-63
2023/04/18 08:33:53;;;;;;;;;;;;;;;26.73;41.31;94242.59;5027712;28;7024;-63
2023/04/18 08:36:21;;;;;;;;;;;;;;;26.74;41.14;94239.28;5021914;28;9333;-63
2023/04/18 08:38:49;;;;;;;;;;;;;;;26.74;41.23;94247.56;5024075;28;9222;-63
2023/04/18 08:41:22;;;;;;;;;;;;;;;26.75;41.50;94251.81;5030177;28;7343;-63
2023/04/18 08:43:48;;;;;;;;;;;;;;;26.78;41.29;94241.75;5043976;28;7074;-63
2023/04/18 08:46:14;;;;;;;;;;;;;;;26.78;41.21;94241.75;5020305;28;7256;-63
2023/04/18 08:48:51;;;;;;;;;;;;;;;26.76;40.82;94241.53;5058352;28;7119;-63
2023/04/18 08:51:17;;;;;;;;;;;;;;;26.76;41.34;94247.03;5034348;28;7322;-63
2023/04/18 08:53:44;;;;;;;;;;;;;;;26.80;41.31;94253.00;5019492;28;7872;-63
2023/04/18 08:56:16;;;;;;;;;;;;;;;26.78;41.64;94250.78;5028815;28;9090;-63
2023/04/18 08:58:43;;;;;;;;;;;;;;;26.79;41.55;94251.53;5027114;28;9349;-63
2023/04/18 09:01:12;;;;;;;;;;;;;;;26.77;41.17;94246.50;5038017;28;7023;-63
2023/04/18 09:03:41;;;;;;;;;;;;;;;26.77;41.44;94252.03;5041049;28;7031;-62
2023/04/18 09:06:15;;;;;;;;;;;;;;;26.76;41.49;94247.78;5042012;28;7256;-62
2023/04/18 09:08:57;;;;;;;;;;;;;;;26.78;41.25;94250.03;5025295;28;7386;-63
2023/04/18 09:11:28;;;;;;;;;;;;;;;26.75;40.82;94249.03;5054560;28;8996;-62
2023/04/18 09:13:57;;;;;;;;;;;;;;;26.78;41.22;94256.28;5028743;28;9071;-63
2023/04/18 09:16:24;;;;;;;;;;;;;;;26.77;41.35;94254.78;5022076;28;7032;-62
2023/04/18 09:19:12;;;;;;;;;;;;;;;26.78;41.09;94255.53;5027597;28;7054;-62
2023/04/18 09:21:45;;;;;;;;;;;;;;;26.79;41.08;94254.28;5027494;28;7163;-63
2023/04/18 09:24:25;;;;;;;;;;;;;;;26.77;41.04;94254.78;5025172;28;7041;-63
2023/04/18 09:26:55;;;;;;;;;;;;;;;26.79;41.79;94243.25;5023365;28;7066;-61
2023/04/18 09:29:45;;;;;;;;;;;;;;;26.83;40.89;94249.22;5035246;28;7350;-62
2023/04/18 09:32:29;;;;;;;;;;;;;;;26.81;40.97;94243.47;5029570;28;9356;-63
2023/04/18 09:35:28;;;;;;;;;;;;;;;26.83;41.16;94240.94;5063122;28;7668;-63
2023/04/18 09:38:06;;;;;;;;;;;;;;;26.83;41.26;94246.44;4954402;28;7715;-63
2023/04/18 09:40:33;;;;;;;;;;;;;;;26.83;41.00;94254.72;4952557;28;7045;-63
2023/04/18 09:43:21;;;;;;;;;;;;;;;26.83;40.67;94243.69;4964434;28;9451;-62
2023/04/18 09:45:49;;;;;;;;;;;;;;;26.84;40.70;94251.44;4955385;28;8797;-63
2023/04/18 09:48:24;;;;;;;;;;;;;;;26.85;40.97;94254.94;4952325;28;7387;-63
2023/04/18 09:51:06;;;;;;;;;;;;;;;26.85;40.77;94246.66;4970265;28;7018;-63
2023/04/18 09:53:39;;;;;;;;;;;;;;;26.84;41.12;94245.16;4972968;28;7317;-63
2023/04/18 09:56:21;;;;;;;;;;;;;;;26.86;40.85;94250.94;4969683;28;9398;-63
2023/04/18 09:59:07;;;;;;;;;;;;;;;26.87;40.64;94252.41;4972994;28;8237;-62
2023/04/18 10:01:52;;;;;;;;;;;;;;;26.84;40.93;94254.19;4979485;28;9030;-63
2023/04/18 10:04:19;;;;;;;;;;;;;;;26.88;40.77;94253.91;4956514;28;7199;-62
2023/04/18 10:06:55;;;;;;;;;;;;;;;26.88;40.50;94254.63;4948486;28;8108;-63
2023/04/18 10:09:35;;;;;;;;;;;;;;;26.89;41.01;94252.63;4958085;28;7876;-62
2023/04/18 10:12:02;;;;;;;;;;;;;;;26.89;40.30;94252.63;4985106;28;8196;-63
2023/04/18 10:14:32;;;;;;;;;;;;;;;26.90;40.50;94251.38;5021783;28;8823;-62
2023/04/18 10:17:03;;;;;;;;;;;;;;;26.92;40.57;94254.34;5026678;28;7542;-63
2023/04/18 10:19:30;;;;;;;;;;;;;;;26.93;40.29;94250.31;5041061;28;7193;-63
2023/04/18 10:21:59;;;;;;;;;;;;;;;26.90;40.41;94254.13;5064670;28;7000;-63
2023/04/18 10:24:48;;;;;;;;;;;;;;;26.92;40.37;94254.34;5031186;28;7065;-63
2023/04/18 10:27:36;;;;;;;;;;;;;;;26.91;40.26;94247.34;5030222;28;7265;-63
2023/04/18 10:30:02;;;;;;;;;;;;;;;26.92;39.62;94248.84;5041913;28;7307;-63
2023/04/18 10:32:28;;;;;;;;;;;;;;;26.95;39.60;94247.06;5030323;28;9223;-62
2023/04/18 10:34:55;;;;;;;;;;;;;;;26.95;39.54;94252.56;5048999;28;7276;-63
2023/04/18 10:37:22;;;;;;;;;;;;;;;26.94;39.27;94243.53;5024635;28;7221;-63
2023/04/18 10:40:43;;;;;;;;;;;;;;;26.94;39.10;94251.06;5031966;28;7014;-63
2023/04/18 10:43:12;;;;;;;;;;;;;;;26.91;38.87;94250.09;4972670;28;7177;-63
2023/04/18 10:46:10;;;;;;;;;;;;;;;26.92;39.54;94249.56;4972531;28;7206;-62
2023/04/18 10:51:53;;;;;;;;;;;;;;;26.99;38.99;94247.50;4970210;28;7971;-63
2023/04/18 10:55:17;;;;;;;;;;;;;;;27.01;38.98;94248.47;4971222;28;9222;-64
2023/04/18 10:57:56;;;;;;;;;;;;;;;27.00;39.12;94244.19;4908967;29;7238;-64
2023/04/18 11:00:23;;;;;;;;;;;;;;;26.97;39.50;94242.47;4913712;29;7270;-64
2023/04/18 11:02:52;;;;;;;;;;;;;;;27.00;38.89;94240.69;4896754;29;6867;-64
2023/04/18 11:05:35;;;;;;;;;;;;;;;26.98;39.16;94238.47;4889550;29;7210;-63
2023/04/18 11:08:34;;;;;;;;;;;;;;;27.02;38.95;94235.38;4903184;29;7154;-62
2023/04/18 11:11:05;;;;;;;;;;;;;;;27.01;39.24;94231.91;4894074;29;7007;-63
2023/04/18 11:13:56;;;;;;;;;;;;;;;27.03;39.19;94236.88;4911245;29;9472;-63
2023/04/18 11:16:32;;;;;;;;;;;;;;;27.00;39.07;94224.88;4916546;28;7206;-63
2023/04/18 11:19:18;;;;;;;;;;;;;;;27.04;39.13;94233.59;4965360;28;7182;-64
2023/04/18 11:21:59;;;;;;;;;;;;;;;27.04;39.24;94230.09;4943957;28;7207;-64
2023/04/18 11:24:25;;;;;;;;;;;;;;;27.04;39.60;94228.06;4945473;28;7092;-64
2023/04/18 11:27:15;;;;;;;;;;;;;;;27.07;39.27;94229.03;4936469;28;7183;-64
2023/04/18 11:29:42;;;;;;;;;;;;;;;27.08;38.88;94225.03;5063803;28;7335;-63
2023/04/18 11:32:22;;;;;;;;;;;;;;;27.08;39.21;94222.28;5031425;28;8722;-63
2023/04/18 11:34:54;;;;;;;;;;;;;;;27.10;39.42;94225.97;5032655;28;9369;-63
2023/04/18 11:37:23;;;;;;;;;;;;;;;27.11;39.24;94233.00;5031747;28;7260;-63
2023/04/18 11:40:07;;;;;;;;;;;;;;;27.12;38.93;94228.94;5026967;28;7032;-64
2023/04/18 11:43:02;;;;;;;;;;;;;;;27.14;39.06;94231.97;5029095;28;8888;-63
2023/04/18 11:45:32;;;;;;;;;;;;;;;27.16;39.28;94228.66;4972005;28;7050;-63
2023/04/18 11:48:01;;;;;;;;;;;;;;;27.15;39.26;94227.91;4968521;28;7319;-64
2023/04/18 11:50:37;;;;;;;;;;;;;;;27.16;39.34;94234.19;4983501;28;7271;-63
2023/04/18 11:53:04;;;;;;;;;;;;;;;27.18;39.17;94228.88;4968725;28;7524;-63
2023/04/18 11:55:35;;;;;;;;;;;;;;;27.19;39.45;94230.34;4985605;28;7250;-63
2023/04/18 11:58:07;;;;;;;;;;;;;;;27.19;39.02;94233.88;4986269;28;7664;-63
2023/04/18 12:00:43;;;;;;;;;;;;;;;27.21;39.34;94238.88;4971726;28;7240;-63
2023/04/18 12:03:43;;;;;;;;;;;;;;;27.23;39.16;94239.09;4985885;28;8594;-63
2023/04/18 12:06:45;;;;;;;;;;;;;;;27.23;39.25;94236.34;4989229;28;9177;-63
2023/04/18 12:09:23;;;;;;;;;;;;;;;27.25;39.38;94242.81;4945619;28;7331;-63
2023/04/18 12:12:02;;;;;;;;;;;;;;;27.23;39.21;94239.84;4951783;28;9157;-64
2023/04/18 12:14:38;;;;;;;;;;;;;;;27.24;39.59;94230.28;4968165;28;9333;-64
2023/04/18 12:17:04;;;;;;;;;;;;;;;27.26;39.30;94232.50;4971739;28;9333;-64
2023/04/18 12:19:45;;;;;;;;;;;;;;;27.26;38.99;94244.31;4952713;28;7006;-63
2023/04/18 12:22:18;;;;;;;;;;;;;;;27.26;39.12;94232.50;4960667;28;8594;-63
2023/04/18 12:28:18;;;;;;;;;;;;;;;27.29;39.32;94226.69;4987798;28;7342;-64
2023/04/18 12:30:45;;;;;;;;;;;;;;;27.31;39.51;94235.22;4969729;28;8951;-63
2023/04/18 12:33:16;;;;;;;;;;;;;;;27.31;39.28;94232.44;4980032;28;7047;-64
2023/04/18 12:35:45;;;;;;;;;;;;;;;27.34;39.13;94228.63;4970603;28;7019;-63
2023/04/18 12:38:12;;;;;;;;;;;;;;;27.35;38.98;94232.91;4987166;28;7327;-64
2023/04/18 12:40:57;;;;;;;;;;;;;;;27.36;39.20;94231.63;5001358;28;7136;-63
2023/04/18 12:43:45;;;;;;;;;;;;;;;27.36;39.26;94230.91;4988983;28;7257;-63
2023/04/18 12:46:12;;;;;;;;;;;;;;;27.38;39.42;94228.34;5038366;28;7032;-64
2023/04/18 12:48:48;;;;;;;;;;;;;;;27.36;39.21;94226.09;5027910;28;7018;-63
2023/04/18 12:51:21;;;;;;;;;;;;;;;27.36;39.52;94226.09;5024412;28;7501;-64
2023/04/18 12:53:52;;;;;;;;;;;;;;;27.39;39.25;94225.06;5020550;28;7140;-63
2023/04/18 12:56:20;;;;;;;;;;;;;;;27.38;39.70;94228.34;5022114;28;7061;-64
2023/04/18 12:58:53;;;;;;;;;;;;;;;27.42;39.41;94226.78;5031191;28;8911;-63
2023/04/18 13:01:31;;;;;;;;;;;;;;;27.42;39.74;94229.53;5023422;28;7280;-63
2023/04/18 13:03:58;;;;;;;;;;;;;;;27.45;39.39;94228.47;5058482;28;9018;-63
2023/04/18 13:06:24;;;;;;;;;;;;;;;27.49;39.27;94226.13;5061012;28;9146;-63
2023/04/18 13:08:50;;;;;;;;;;;;;;;27.47;39.31;94223.16;5027222;28;7631;-64
2023/04/18 13:11:16;;;;;;;;;;;;;;;27.52;39.39;94225.09;5027169;28;7053;-63
2023/04/18 13:13:42;;;;;;;;;;;;;;;27.53;39.50;94220.31;5019178;28;7026;-64
2023/04/18 13:16:08;;;;;;;;;;;;;;;27.54;39.48;94225.31;5025589;28;7260;-63
2023/04/18 13:18:34;;;;;;;;;;;;;;;27.56;39.37;94217.25;5028486;28;7464;-64
2023/04/18 13:21:02;;;;;;;;;;;;;;;27.55;39.64;94224.06;5043013;28;7279;-64
2023/04/18 13:23:28;;;;;;;;;;;;;;;27.61;39.59;94232.22;5032378;28;7030;-64
2023/04/18 13:25:54;;;;;;;;;;;;;;;27.61;39.52;94219.16;5014577;28;9695;-64
2023/04/18 13:28:20;;;;;;;;;;;;;;;27.63;39.23;94221.41;5028178;28;7061;-64
2023/04/18 13:30:46;;;;;;;;;;;;;;;27.66;39.30;94222.38;5034918;28;7923;-63
2023/04/18 13:33:12;;;;;;;;;;;;;;;27.63;39.23;94213.09;5042929;28;8976;-63
2023/04/18 13:35:38;;;;;;;;;;;;;;;27.66;39.11;94219.59;5037252;28;7079;-63
2023/04/18 13:38:04;;;;;;;;;;;;;;;27.66;39.21;94216.84;5032116;28;9011;-63
2023/04/18 13:40:32;;;;;;;;;;;;;;;27.69;39.16;94218.56;5043756;28;7257;-64
2023/04/18 13:43:00;;;;;;;;;;;;;;;27.69;39.56;94218.56;5034633;28;7269;-64
2023/04/18 13:45:26;;;;;;;;;;;;;;;27.73;39.34;94224.50;5024557;28;9212;-63
2023/04/18 13:47:54;;;;;;;;;;;;;;;27.73;38.94;94219.69;5034748;28;7272;-64
2023/04/18 13:50:21;;;;;;;;;;;;;;;27.74;39.39;94221.19;5028731;28;7488;-63